createdAt,value
2023-01-13T00:01:15.637Z,19.05
2023-01-13T00:03:42.004Z,19.04
2023-01-13T00:06:12.302Z,19.04
2023-01-13T00:08:38.564Z,19.03
2023-01-13T00:11:04.994Z,19.02
2023-01-13T00:13:31.309Z,19.01
2023-01-13T00:15:58.250Z,19.01
2023-01-13T00:18:24.545Z,19.00
2023-01-13T00:20:57.667Z,19.01
2023-01-13T00:23:26.458Z,19.01
2023-01-13T00:25:54.704Z,19.01
2023-01-13T00:28:20.975Z,19.00
2023-01-13T00:30:47.350Z,18.99
2023-01-13T00:33:13.631Z,19.00
2023-01-13T00:35:39.913Z,18.99
2023-01-13T00:38:06.242Z,18.98
2023-01-13T00:40:33.854Z,18.99
2023-01-13T00:43:00.208Z,18.97
2023-01-13T00:45:26.505Z,18.96
2023-01-13T00:47:52.817Z,18.99
2023-01-13T00:50:19.108Z,18.96
2023-01-13T00:52:45.410Z,18.97
2023-01-13T00:55:11.703Z,18.95
2023-01-13T00:57:39.286Z,18.95
2023-01-13T01:00:05.868Z,18.94
2023-01-13T01:02:32.364Z,18.94
2023-01-13T01:04:58.728Z,18.93
2023-01-13T01:07:25.059Z,18.93
2023-01-13T01:09:51.350Z,18.93
2023-01-13T01:12:17.639Z,18.93
2023-01-13T01:14:45.411Z,18.91
2023-01-13T01:17:11.719Z,18.92
2023-01-13T01:19:38.037Z,18.91
2023-01-13T01:22:04.328Z,18.91
2023-01-13T01:24:30.721Z,18.90
2023-01-13T01:26:57.034Z,18.91
2023-01-13T01:29:23.318Z,18.91
2023-01-13T01:31:50.926Z,18.88
2023-01-13T01:34:17.277Z,18.88
2023-01-13T01:36:43.599Z,18.88
2023-01-13T01:39:10.019Z,18.88
2023-01-13T01:41:36.760Z,18.87
2023-01-13T01:44:07.349Z,18.86
2023-01-13T01:46:35.418Z,18.85
2023-01-13T01:49:06.903Z,18.85
2023-01-13T01:51:34.283Z,18.86
2023-01-13T01:54:02.455Z,18.84
2023-01-13T01:56:29.117Z,18.84
2023-01-13T01:58:55.436Z,18.84
2023-01-13T02:01:21.803Z,18.84
2023-01-13T02:03:52.388Z,18.83
2023-01-13T02:06:20.234Z,18.82
2023-01-13T02:08:47.177Z,18.84
2023-01-13T02:11:23.371Z,18.83
2023-01-13T02:13:49.681Z,18.83
2023-01-13T02:16:19.877Z,18.82
2023-01-13T02:18:53.506Z,18.82
2023-01-13T02:21:36.581Z,18.82
2023-01-13T02:24:14.466Z,18.81
2023-01-13T02:26:52.977Z,18.82
2023-01-13T02:29:29.298Z,18.82
2023-01-13T02:32:00.217Z,18.81
2023-01-13T02:34:32.862Z,18.81
2023-01-13T02:37:03.551Z,18.79
2023-01-13T02:39:32.760Z,18.79
2023-01-13T02:42:03.694Z,18.80
2023-01-13T02:44:33.245Z,18.78
2023-01-13T02:47:03.556Z,18.79
2023-01-13T02:49:33.927Z,18.81
2023-01-13T02:52:02.968Z,18.80
2023-01-13T02:54:30.310Z,18.79
2023-01-13T02:56:57.704Z,18.78
2023-01-13T02:59:24.579Z,18.77
2023-01-13T03:01:51.073Z,18.78
2023-01-13T03:04:32.367Z,18.78
2023-01-13T03:07:04.993Z,18.77
2023-01-13T03:09:37.316Z,18.78
2023-01-13T03:12:08.555Z,18.77
2023-01-13T03:14:38.223Z,18.77
2023-01-13T03:17:11.778Z,18.76
2023-01-13T03:19:41.963Z,18.76
2023-01-13T03:22:14.861Z,18.77
2023-01-13T03:24:42.739Z,18.82
2023-01-13T03:27:12.498Z,18.89
2023-01-13T03:29:40.999Z,18.94
2023-01-13T03:32:10.453Z,19.01
2023-01-13T03:34:40.526Z,19.05
2023-01-13T03:37:08.592Z,19.11
2023-01-13T03:39:39.703Z,19.15
2023-01-13T03:42:08.728Z,19.19
2023-01-13T03:44:39.535Z,19.24
2023-01-13T03:47:09.607Z,19.28
2023-01-13T03:49:38.712Z,19.31
2023-01-13T03:52:07.680Z,19.35
2023-01-13T03:54:37.768Z,19.37
2023-01-13T03:57:07.691Z,19.40
2023-01-13T03:59:38.785Z,19.43
2023-01-13T04:02:08.044Z,19.45
2023-01-13T04:04:35.644Z,19.48
2023-01-13T04:07:06.411Z,19.51
2023-01-13T04:09:36.593Z,19.53
2023-01-13T04:12:08.425Z,19.57
2023-01-13T04:14:35.516Z,19.60
2023-01-13T04:17:01.830Z,19.61
2023-01-13T04:19:28.203Z,19.63
2023-01-13T04:21:54.488Z,19.66
2023-01-13T04:24:20.922Z,19.67
2023-01-13T04:26:47.258Z,19.69
2023-01-13T04:29:15.829Z,19.71
2023-01-13T04:31:42.274Z,19.72
2023-01-13T04:34:09.747Z,19.74
2023-01-13T04:36:36.238Z,19.77
2023-01-13T04:39:02.865Z,19.79
2023-01-13T04:41:29.483Z,19.79
2023-01-13T04:43:55.869Z,19.81
2023-01-13T04:46:23.481Z,19.83
2023-01-13T04:48:49.780Z,19.84
2023-01-13T04:51:16.046Z,19.87
2023-01-13T04:53:42.340Z,19.89
2023-01-13T04:56:08.794Z,19.90
2023-01-13T04:58:35.078Z,19.91
2023-01-13T05:01:01.408Z,19.92
2023-01-13T05:03:29.064Z,19.94
2023-01-13T05:05:55.441Z,19.95
2023-01-13T05:08:21.741Z,19.97
2023-01-13T05:10:48.054Z,19.97
2023-01-13T05:13:14.382Z,19.97
2023-01-13T05:15:40.943Z,20.00
2023-01-13T05:18:07.379Z,20.01
2023-01-13T05:20:35.016Z,20.02
2023-01-13T05:23:01.322Z,20.03
2023-01-13T05:25:27.737Z,20.05
2023-01-13T05:27:55.289Z,20.06
2023-01-13T05:30:22.812Z,20.08
2023-01-13T05:32:49.170Z,20.11
2023-01-13T05:35:16.051Z,20.10
2023-01-13T05:37:44.161Z,20.12
2023-01-13T05:40:11.569Z,20.13
2023-01-13T05:42:37.869Z,20.13
2023-01-13T05:45:04.483Z,20.16
2023-01-13T05:47:31.579Z,20.22
2023-01-13T05:49:57.881Z,20.19
2023-01-13T05:52:24.212Z,20.20
2023-01-13T05:54:51.825Z,20.20
2023-01-13T05:57:18.141Z,20.24
2023-01-13T05:59:44.595Z,20.23
2023-01-13T06:02:10.930Z,20.30
2023-01-13T06:04:37.303Z,20.19
2023-01-13T06:07:03.693Z,20.35
2023-01-13T06:09:30.083Z,20.27
2023-01-13T06:11:57.788Z,20.27
2023-01-13T06:14:24.067Z,20.38
2023-01-13T06:16:50.390Z,20.33
2023-01-13T06:19:16.879Z,20.26
2023-01-13T06:21:43.200Z,20.34
2023-01-13T06:24:09.493Z,20.42
2023-01-13T06:26:36.969Z,20.48
2023-01-13T06:29:04.883Z,20.41
2023-01-13T06:31:31.652Z,20.33
2023-01-13T06:34:00.676Z,20.37
2023-01-13T06:36:29.395Z,20.35
2023-01-13T06:38:58.024Z,20.34
2023-01-13T06:41:25.922Z,20.35
2023-01-13T06:43:52.208Z,20.36
2023-01-13T06:46:19.945Z,20.36
2023-01-13T06:48:46.253Z,20.39
2023-01-13T06:51:12.654Z,20.41
2023-01-13T06:53:38.968Z,20.55
2023-01-13T06:56:05.389Z,20.55
2023-01-13T06:58:31.691Z,20.53
2023-01-13T07:00:59.767Z,20.46
2023-01-13T07:03:27.631Z,20.44
2023-01-13T07:05:54.521Z,20.44
2023-01-13T07:08:21.239Z,20.45
2023-01-13T07:10:47.621Z,20.44
2023-01-13T07:13:13.939Z,20.46
2023-01-13T07:15:40.252Z,20.47
2023-01-13T07:18:06.733Z,20.40
2023-01-13T07:20:34.397Z,20.30
2023-01-13T07:23:00.809Z,20.27
2023-01-13T07:25:27.088Z,20.19
2023-01-13T07:27:53.380Z,20.13
2023-01-13T07:30:19.768Z,20.10
2023-01-13T07:32:46.096Z,20.09
2023-01-13T07:35:12.540Z,20.03
2023-01-13T07:37:40.141Z,20.08
2023-01-13T07:40:06.996Z,20.18
2023-01-13T07:42:33.379Z,20.14
2023-01-13T07:44:59.755Z,20.13
2023-01-13T07:47:26.130Z,20.10
2023-01-13T07:49:52.465Z,20.07
2023-01-13T07:52:18.870Z,20.18
2023-01-13T07:54:46.556Z,20.34
2023-01-13T07:57:12.876Z,20.42
2023-01-13T07:59:39.214Z,20.46
2023-01-13T08:02:05.767Z,20.52
2023-01-13T08:04:32.185Z,20.57
2023-01-13T08:06:58.640Z,20.59
2023-01-13T08:09:24.958Z,20.59
2023-01-13T08:11:54.898Z,20.59
2023-01-13T08:14:21.239Z,20.61
2023-01-13T08:16:47.614Z,20.64
2023-01-13T08:19:14.044Z,20.65
2023-01-13T08:21:40.334Z,20.67
2023-01-13T08:24:06.920Z,20.68
2023-01-13T08:26:33.385Z,20.69
2023-01-13T08:29:01.007Z,20.70
2023-01-13T08:31:27.355Z,20.67
2023-01-13T08:33:53.695Z,20.69
2023-01-13T08:36:19.999Z,20.72
2023-01-13T08:38:46.563Z,20.77
2023-01-13T08:41:14.116Z,20.83
2023-01-13T08:43:40.805Z,20.81
2023-01-13T08:46:08.695Z,20.83
2023-01-13T08:48:35.083Z,20.82
2023-01-13T08:51:02.076Z,20.83
2023-01-13T08:53:28.466Z,20.78
2023-01-13T08:55:54.783Z,20.67
2023-01-13T08:58:21.177Z,20.61
2023-01-13T09:00:47.532Z,20.59
2023-01-13T09:03:15.205Z,20.56
2023-01-13T09:05:41.494Z,20.57
2023-01-13T09:08:07.850Z,20.52
2023-01-13T09:10:34.439Z,20.50
2023-01-13T09:13:00.784Z,20.54
2023-01-13T09:15:27.242Z,20.57
2023-01-13T09:17:53.710Z,20.68
2023-01-13T09:20:21.453Z,20.71
2023-01-13T09:22:47.781Z,20.77
2023-01-13T09:25:14.177Z,20.77
2023-01-13T09:27:40.502Z,20.79
2023-01-13T09:30:08.202Z,20.80
2023-01-13T09:32:34.988Z,20.83
2023-01-13T09:35:01.363Z,20.82
2023-01-13T09:37:30.092Z,21.01
2023-01-13T09:39:56.489Z,20.84
2023-01-13T09:42:27.924Z,20.68
2023-01-13T09:44:56.307Z,20.70
2023-01-13T09:47:25.579Z,20.73
2023-01-13T09:49:51.976Z,20.66
2023-01-13T09:52:19.813Z,20.60
2023-01-13T09:54:49.733Z,20.54
2023-01-13T09:57:17.125Z,20.53
2023-01-13T09:59:43.781Z,20.56
2023-01-13T10:02:23.325Z,20.60
2023-01-13T10:04:59.653Z,20.62
2023-01-13T10:07:29.760Z,20.54
2023-01-13T10:09:58.317Z,20.53
2023-01-13T10:12:26.349Z,20.49
2023-01-13T10:14:54.459Z,20.66
2023-01-13T10:17:24.532Z,20.89
2023-01-13T10:19:55.090Z,21.00
2023-01-13T10:22:27.587Z,21.08
2023-01-13T10:25:04.488Z,21.13
2023-01-13T10:27:32.818Z,21.20
2023-01-13T10:29:59.199Z,21.24
2023-01-13T10:32:25.669Z,21.30
2023-01-13T10:34:52.006Z,21.32
2023-01-13T10:37:20.686Z,21.35
2023-01-13T10:39:48.275Z,21.36
2023-01-13T10:42:17.016Z,21.30
2023-01-13T10:44:47.593Z,21.37
2023-01-13T10:47:25.296Z,21.41
2023-01-13T10:50:00.236Z,21.45
2023-01-13T10:52:27.554Z,21.49
2023-01-13T10:54:54.583Z,21.52
2023-01-13T10:57:23.017Z,21.56
2023-01-13T10:59:49.402Z,21.64
2023-01-13T11:02:26.956Z,21.64
2023-01-13T11:05:03.506Z,21.70
2023-01-13T11:07:32.201Z,21.73
2023-01-13T11:10:06.259Z,21.73
2023-01-13T11:12:34.954Z,21.65
2023-01-13T11:15:04.067Z,21.68
2023-01-13T11:17:36.447Z,21.73
2023-01-13T11:20:12.164Z,21.79
2023-01-13T11:22:40.323Z,21.74
2023-01-13T11:25:09.810Z,21.77
2023-01-13T11:27:40.679Z,21.81
2023-01-13T11:30:12.488Z,21.78
2023-01-13T11:32:41.177Z,21.86
2023-01-13T11:35:14.754Z,21.86
2023-01-13T11:37:43.330Z,21.84
2023-01-13T11:40:14.696Z,21.83
2023-01-13T11:42:46.334Z,21.75
2023-01-13T11:45:17.541Z,21.74
2023-01-13T11:47:46.271Z,21.77
2023-01-13T11:50:16.302Z,21.79
2023-01-13T11:52:51.459Z,21.74
2023-01-13T11:55:25.441Z,21.68
2023-01-13T11:57:59.865Z,21.64
2023-01-13T12:00:31.695Z,21.63
2023-01-13T12:03:08.718Z,21.62
2023-01-13T12:05:36.572Z,21.69
2023-01-13T12:08:11.535Z,21.78
2023-01-13T12:10:42.724Z,21.80
2023-01-13T12:13:16.017Z,21.77
2023-01-13T12:15:51.574Z,21.82
2023-01-13T12:18:27.409Z,21.82
2023-01-13T12:21:02.709Z,21.91
2023-01-13T12:23:32.155Z,21.48
2023-01-13T12:25:59.521Z,21.26
2023-01-13T12:28:28.873Z,21.18
2023-01-13T12:30:59.023Z,21.12
2023-01-13T12:33:32.850Z,21.40
2023-01-13T12:36:01.358Z,21.61
2023-01-13T12:38:34.512Z,21.74
2023-01-13T12:41:07.394Z,21.87
2023-01-13T12:43:37.248Z,21.85
2023-01-13T12:46:13.465Z,21.92
2023-01-13T12:48:54.268Z,21.81
2023-01-13T12:51:21.852Z,21.58
2023-01-13T12:53:48.232Z,21.23
2023-01-13T12:56:27.782Z,21.21
2023-01-13T12:59:09.417Z,21.09
2023-01-13T13:01:37.552Z,21.03
2023-01-13T13:04:07.913Z,21.02
2023-01-13T13:06:36.182Z,21.04
2023-01-13T13:09:04.273Z,20.92
2023-01-13T13:11:35.914Z,20.83
2023-01-13T13:14:02.735Z,20.98
2023-01-13T13:16:39.010Z,20.93
2023-01-13T13:19:15.380Z,20.93
2023-01-13T13:21:51.569Z,20.84
2023-01-13T13:24:19.346Z,20.72
2023-01-13T13:26:45.959Z,20.68
2023-01-13T13:29:21.579Z,20.66
2023-01-13T13:32:00.398Z,20.64
2023-01-13T13:34:30.156Z,20.62
2023-01-13T13:37:02.128Z,20.64
2023-01-13T13:39:32.111Z,20.62
2023-01-13T13:42:04.631Z,20.68
2023-01-13T13:44:32.332Z,20.70
2023-01-13T13:46:59.502Z,20.57
2023-01-13T13:49:34.708Z,20.55
2023-01-13T13:52:04.148Z,20.46
2023-01-13T13:54:32.391Z,20.44
2023-01-13T13:56:58.862Z,20.44
2023-01-13T13:59:26.507Z,20.40
2023-01-13T14:01:54.091Z,20.37
2023-01-13T14:04:22.234Z,20.40
2023-01-13T14:06:48.964Z,20.38
2023-01-13T14:09:16.744Z,20.38
2023-01-13T14:11:53.727Z,20.44
2023-01-13T14:14:20.033Z,20.58
2023-01-13T14:16:46.459Z,20.48
2023-01-13T14:19:22.480Z,20.70
2023-01-13T14:21:48.914Z,20.91
2023-01-13T14:24:16.315Z,21.06
2023-01-13T14:26:44.126Z,21.05
2023-01-13T14:29:13.433Z,21.06
2023-01-13T14:31:40.175Z,21.09
2023-01-13T14:34:31.942Z,21.13
2023-01-13T14:36:53.655Z,21.18
2023-01-13T14:39:24.333Z,21.21
2023-01-13T14:41:52.492Z,21.25
2023-01-13T14:44:22.082Z,21.26
2023-01-13T14:46:48.947Z,21.27
2023-01-13T14:49:19.355Z,21.29
2023-01-13T14:51:45.659Z,21.32
2023-01-13T14:54:26.941Z,21.33
2023-01-13T14:57:06.005Z,21.34
2023-01-13T14:59:34.481Z,21.40
2023-01-13T15:02:01.516Z,21.38
2023-01-13T15:04:31.673Z,21.39
2023-01-13T15:06:59.117Z,21.47
2023-01-13T15:09:27.034Z,21.42
2023-01-13T15:11:53.440Z,21.36
2023-01-13T15:14:24.389Z,21.33
2023-01-13T15:16:50.714Z,21.39
2023-01-13T15:19:17.036Z,21.37
2023-01-13T15:21:43.362Z,21.41
2023-01-13T15:24:09.669Z,21.41
2023-01-13T15:26:36.105Z,21.36
2023-01-13T15:29:03.443Z,21.37
2023-01-13T15:31:31.137Z,21.37
2023-01-13T15:33:57.455Z,21.37
2023-01-13T15:36:25.682Z,21.36
2023-01-13T15:38:51.979Z,21.36
2023-01-13T15:41:18.320Z,21.37
2023-01-13T15:43:44.622Z,21.35
2023-01-13T15:46:12.618Z,21.34
2023-01-13T15:48:40.281Z,21.33
2023-01-13T15:51:06.899Z,21.33
2023-01-13T15:53:33.211Z,21.32
2023-01-13T15:56:00.115Z,21.33
2023-01-13T15:58:28.376Z,21.32
2023-01-13T16:00:55.209Z,21.37
2023-01-13T16:03:21.654Z,21.40
2023-01-13T16:05:49.496Z,21.27
2023-01-13T16:08:16.278Z,21.14
2023-01-13T16:10:43.370Z,21.11
2023-01-13T16:13:09.656Z,21.06
2023-01-13T16:15:36.272Z,21.04
2023-01-13T16:18:03.843Z,20.98
2023-01-13T16:20:30.426Z,20.95
2023-01-13T16:22:58.099Z,20.93
2023-01-13T16:25:25.293Z,20.90
2023-01-13T16:27:52.421Z,20.89
2023-01-13T16:30:22.804Z,20.86
2023-01-13T16:32:49.220Z,20.84
2023-01-13T16:35:15.532Z,20.83
2023-01-13T16:37:41.877Z,20.80
2023-01-13T16:40:17.596Z,20.78
2023-01-13T16:42:43.895Z,20.76
2023-01-13T16:45:10.496Z,20.75
2023-01-13T16:47:36.857Z,20.73
2023-01-13T16:50:03.191Z,20.71
2023-01-13T16:52:29.481Z,20.70
2023-01-13T16:54:55.887Z,20.68
2023-01-13T16:57:23.464Z,20.66
2023-01-13T16:59:49.753Z,20.64
2023-01-13T17:02:16.515Z,20.61
2023-01-13T17:04:42.888Z,20.61
2023-01-13T17:07:09.507Z,20.60
2023-01-13T17:09:35.840Z,20.57
2023-01-13T17:12:02.169Z,20.56
2023-01-13T17:14:29.837Z,20.54
2023-01-13T17:16:58.023Z,20.52
2023-01-13T17:19:24.656Z,20.49
2023-01-13T17:21:51.030Z,20.46
2023-01-13T17:24:17.762Z,20.46
2023-01-13T17:26:45.043Z,20.45
2023-01-13T17:29:12.593Z,20.42
2023-01-13T17:31:40.214Z,20.39
2023-01-13T17:34:06.831Z,20.40
2023-01-13T17:36:33.406Z,20.38
2023-01-13T17:38:59.733Z,20.37
2023-01-13T17:41:26.224Z,20.35
2023-01-13T17:43:52.608Z,20.34
2023-01-13T17:46:19.127Z,20.33
2023-01-13T17:48:46.922Z,20.32
2023-01-13T17:51:14.047Z,20.30
2023-01-13T17:53:40.369Z,20.30
2023-01-13T17:56:07.717Z,20.26
2023-01-13T17:58:33.984Z,20.26
2023-01-13T18:01:00.310Z,20.23
2023-01-13T18:03:26.658Z,20.22
2023-01-13T18:05:54.355Z,20.22
2023-01-13T18:08:20.748Z,20.20
2023-01-13T18:10:50.845Z,20.19
2023-01-13T18:13:17.183Z,20.18
2023-01-13T18:15:43.503Z,20.16
2023-01-13T18:18:09.778Z,20.14
2023-01-13T18:20:36.208Z,20.13
2023-01-13T18:23:03.769Z,20.11
2023-01-13T18:25:30.102Z,20.11
2023-01-13T18:27:56.446Z,20.10
2023-01-13T18:30:22.746Z,20.10
2023-01-13T18:32:49.094Z,20.09
2023-01-13T18:35:15.342Z,20.07
2023-01-13T18:37:41.773Z,20.07
2023-01-13T18:40:11.211Z,20.07
2023-01-13T18:42:37.540Z,20.05
2023-01-13T18:45:04.235Z,20.04
2023-01-13T18:47:30.825Z,20.02
2023-01-13T18:49:57.321Z,19.99
2023-01-13T18:52:24.477Z,20.01
2023-01-13T18:54:50.854Z,20.00
2023-01-13T18:57:18.692Z,19.98
2023-01-13T18:59:45.001Z,19.98
2023-01-13T19:02:14.248Z,19.97
2023-01-13T19:04:40.852Z,19.96
2023-01-13T19:07:07.104Z,19.95
2023-01-13T19:09:33.478Z,19.94
2023-01-13T19:11:59.904Z,19.93
2023-01-13T19:14:27.595Z,19.92
2023-01-13T19:16:53.953Z,19.92
2023-01-13T19:19:20.239Z,19.91
2023-01-13T19:21:46.596Z,19.89
2023-01-13T19:24:12.864Z,19.89
2023-01-13T19:26:39.168Z,19.87
2023-01-13T19:29:05.456Z,19.87
2023-01-13T19:31:33.070Z,19.87
2023-01-13T19:33:59.645Z,19.86
2023-01-13T19:36:25.939Z,19.84
2023-01-13T19:38:52.376Z,19.84
2023-01-13T19:41:18.773Z,19.83
2023-01-13T19:43:45.119Z,19.82
2023-01-13T19:46:11.942Z,19.82
2023-01-13T19:48:39.980Z,19.80
2023-01-13T19:51:06.350Z,19.79
2023-01-13T19:53:32.890Z,19.80
2023-01-13T19:55:59.345Z,19.78
2023-01-13T19:58:25.720Z,19.78
2023-01-13T20:00:52.550Z,19.77
2023-01-13T20:03:20.401Z,19.76
2023-01-13T20:05:48.054Z,19.75
2023-01-13T20:08:14.331Z,19.75
2023-01-13T20:10:40.638Z,19.74
2023-01-13T20:13:07.120Z,19.74
2023-01-13T20:15:33.468Z,19.74
2023-01-13T20:17:59.790Z,19.73
2023-01-13T20:20:26.328Z,19.73
2023-01-13T20:22:53.948Z,19.71
2023-01-13T20:25:20.390Z,19.71
2023-01-13T20:27:47.308Z,19.70
2023-01-13T20:30:13.716Z,19.70
2023-01-13T20:32:40.423Z,19.70
2023-01-13T20:35:07.234Z,19.68
2023-01-13T20:37:33.519Z,19.67
2023-01-13T20:40:01.140Z,19.68
2023-01-13T20:42:27.483Z,19.66
2023-01-13T20:44:53.908Z,19.65
2023-01-13T20:47:20.332Z,19.65
2023-01-13T20:49:46.640Z,19.65
2023-01-13T20:52:13.038Z,19.65
2023-01-13T20:54:40.130Z,19.65
2023-01-13T20:57:08.515Z,19.65
2023-01-13T20:59:35.255Z,19.65
2023-01-13T21:02:01.580Z,19.63
2023-01-13T21:04:28.204Z,19.63
2023-01-13T21:06:54.871Z,19.62
2023-01-13T21:09:21.271Z,19.62
2023-01-13T21:11:47.580Z,19.62
2023-01-13T21:14:16.803Z,19.62
2023-01-13T21:16:43.222Z,19.63
2023-01-13T21:19:09.601Z,19.62
2023-01-13T21:21:35.917Z,19.61
2023-01-13T21:24:02.327Z,19.62
2023-01-13T21:26:28.602Z,19.61
2023-01-13T21:28:56.250Z,19.60
2023-01-13T21:31:25.776Z,19.60
2023-01-13T21:33:53.185Z,19.59
2023-01-13T21:36:19.468Z,19.60
2023-01-13T21:38:49.873Z,19.58
2023-01-13T21:41:16.277Z,19.57
2023-01-13T21:43:42.567Z,19.55
2023-01-13T21:46:10.700Z,19.55
2023-01-13T21:48:38.499Z,19.55
2023-01-13T21:51:05.133Z,19.55
2023-01-13T21:53:31.401Z,19.55
2023-01-13T21:55:57.733Z,19.54
2023-01-13T21:58:24.094Z,19.54
2023-01-13T22:00:50.435Z,19.53
2023-01-13T22:03:16.753Z,19.54
2023-01-13T22:05:44.382Z,19.53
2023-01-13T22:08:12.065Z,19.54
2023-01-13T22:10:38.518Z,19.53
2023-01-13T22:13:04.817Z,19.54
2023-01-13T22:15:31.117Z,19.53
2023-01-13T22:17:57.410Z,19.53
2023-01-13T22:20:24.154Z,19.52
2023-01-13T22:22:51.876Z,19.51
2023-01-13T22:25:18.264Z,19.51
2023-01-13T22:27:44.560Z,19.50
2023-01-13T22:30:12.942Z,19.52
2023-01-13T22:32:39.225Z,19.51
2023-01-13T22:35:06.292Z,19.51
2023-01-13T22:37:32.726Z,19.49
2023-01-13T22:40:00.359Z,19.49
2023-01-13T22:42:26.715Z,19.50
2023-01-13T22:44:53.061Z,19.48
2023-01-13T22:47:19.348Z,19.49
2023-01-13T22:49:45.693Z,19.48
2023-01-13T22:52:12.099Z,19.48
2023-01-13T22:54:38.485Z,19.49
2023-01-13T22:57:06.134Z,19.47
2023-01-13T22:59:32.458Z,19.47
2023-01-13T23:01:58.869Z,19.48
2023-01-13T23:04:25.243Z,19.47
2023-01-13T23:06:51.570Z,19.47
2023-01-13T23:09:17.887Z,19.46
2023-01-13T23:11:44.202Z,19.45
2023-01-13T23:14:12.580Z,19.45
2023-01-13T23:16:39.669Z,19.45
2023-01-13T23:19:07.016Z,19.46
2023-01-13T23:21:34.226Z,19.45
2023-01-13T23:24:00.613Z,19.45
2023-01-13T23:26:27.973Z,19.44
2023-01-13T23:28:57.542Z,19.43
2023-01-13T23:31:25.226Z,19.44
2023-01-13T23:33:51.499Z,19.42
2023-01-13T23:36:18.939Z,19.43
2023-01-13T23:38:45.599Z,19.43
2023-01-13T23:41:13.882Z,19.43
2023-01-13T23:43:40.205Z,19.42
2023-01-13T23:46:07.795Z,19.43
2023-01-13T23:48:35.694Z,19.41
2023-01-13T23:51:03.493Z,19.42
2023-01-13T23:53:30.539Z,19.41
2023-01-13T23:55:57.018Z,19.41
2023-01-13T23:58:23.469Z,19.41
